Time;durP1;ratioP1;P1;durP2;ratioP2;P2;SDS_P1;SDS_P2;PMS_P1;PMS_P2;Temp;Humidity;BMP_temperature;BMP_pressure;BME280_temperature;BME280_humidity;BME280_pressure;Samples;Min_cycle;Max_cycle;Signal;HPM_P1;HPM_P2
2022/07/30 00:01:05;;;;;;;4.40;1.40;;;;;;;22.59;45.96;99746.72;5069336;28;20172;-75
2022/07/30 00:03:32;;;;;;;6.93;1.38;;;;;;;22.54;46.13;99744.59;5069422;28;20058;-75
2022/07/30 00:05:58;;;;;;;1.80;0.88;;;;;;;22.47;46.12;99747.25;5067451;28;20021;-75
2022/07/30 00:08:24;;;;;;;2.47;1.42;;;;;;;22.44;46.28;99747.63;5051984;28;20009;-75
2022/07/30 00:10:50;;;;;;;5.30;1.38;;;;;;;22.40;46.58;99744.47;5051810;28;20103;-74
2022/07/30 00:13:16;;;;;;;1.58;1.17;;;;;;;22.40;46.32;99746.34;5069013;28;20033;-75
2022/07/30 00:15:42;;;;;;;2.00;1.30;;;;;;;22.39;46.42;99753.56;5069181;28;20041;-73
2022/07/30 00:18:07;;;;;;;3.33;0.95;;;;;;;22.34;46.40;99750.66;5068787;28;20029;-76
2022/07/30 00:20:33;;;;;;;4.82;1.42;;;;;;;22.28;46.29;99748.72;5067776;28;20013;-75
2022/07/30 00:23:02;;;;;;;1.60;0.82;;;;;;;22.27;46.40;99743.53;5069029;28;20027;-73
2022/07/30 00:25:27;;;;;;;4.32;1.20;;;;;;;22.27;46.47;99746.22;5068955;28;20044;-74
2022/07/30 00:27:53;;;;;;;1.77;1.10;;;;;;;22.24;46.67;99756.34;5068690;28;20047;-75
2022/07/30 00:30:18;;;;;;;2.25;1.10;;;;;;;22.20;46.30;99749.66;5068514;28;20091;-76
2022/07/30 00:32:44;;;;;;;2.67;1.13;;;;;;;22.16;46.61;99756.47;5069134;28;20016;-76
2022/07/30 00:35:10;;;;;;;2.88;1.52;;;;;;;22.14;46.79;99755.00;5068977;28;20109;-74
2022/07/30 00:37:35;;;;;;;5.03;0.90;;;;;;;22.14;47.03;99750.41;5068045;28;20245;-75
2022/07/30 00:40:01;;;;;;;2.00;0.77;;;;;;;22.19;46.80;99753.38;5069261;28;20021;-75
2022/07/30 00:42:41;;;;;;;3.38;1.20;;;;;;;22.20;46.85;99749.66;5049998;28;20089;-77
2022/07/30 00:45:08;;;;;;;1.73;0.95;;;;;;;22.19;47.06;99748.00;5057673;28;20079;-75
2022/07/30 00:47:34;;;;;;;3.10;1.30;;;;;;;22.15;46.90;99744.00;5068817;28;20033;-77
2022/07/30 00:50:02;;;;;;;2.25;1.10;;;;;;;22.10;47.34;99751.84;5068464;28;20029;-76
2022/07/30 00:52:28;;;;;;;2.47;1.13;;;;;;;22.07;47.51;99750.34;5066915;28;20037;-74
2022/07/30 00:54:54;;;;;;;2.78;1.42;;;;;;;22.07;47.32;99750.34;5069002;28;20024;-74
2022/07/30 00:57:19;;;;;;;3.88;1.20;;;;;;;22.01;47.22;99748.44;5068269;28;20024;-72
2022/07/30 00:59:45;;;;;;;3.28;1.15;;;;;;;21.99;47.52;99746.94;5067816;28;20095;-75
2022/07/30 01:02:11;;;;;;;8.48;1.88;;;;;;;22.00;47.42;99746.78;5068193;28;20029;-73
2022/07/30 01:04:37;;;;;;;6.03;1.42;;;;;;;22.02;47.44;99744.72;5068451;28;20092;-74
2022/07/30 01:07:02;;;;;;;3.55;1.00;;;;;;;22.04;47.29;99758.00;5065944;28;20024;-75
2022/07/30 01:09:28;;;;;;;3.67;1.15;;;;;;;22.05;47.57;99751.56;5068047;28;20257;-75
2022/07/30 01:11:54;;;;;;;2.88;1.27;;;;;;;22.04;47.30;99741.81;5067940;28;20024;-75
2022/07/30 01:14:20;;;;;;;2.50;1.38;;;;;;;22.01;47.52;99743.06;5059719;28;20019;-74
2022/07/30 01:16:46;;;;;;;4.13;1.00;;;;;;;22.00;47.92;99745.91;5068420;28;20032;-73
2022/07/30 01:22:15;;;;;;;1.98;0.93;;;;;;;22.00;47.70;99738.69;5067553;28;20024;-74
2022/07/30 01:24:57;;;;;;;3.60;1.20;;;;;;;21.99;47.98;99746.94;5067902;28;20016;-73
2022/07/30 01:27:25;;;;;;;2.47;1.30;;;;;;;22.06;47.91;99742.47;5065571;28;20044;-72
2022/07/30 01:29:53;;;;;;;2.75;1.73;;;;;;;21.98;47.68;99738.03;5068007;28;20071;-75
2022/07/30 01:32:22;;;;;;;2.78;1.27;;;;;;;21.92;47.99;99739.63;5068204;28;20219;-77
2022/07/30 01:34:50;;;;;;;3.25;1.73;;;;;;;22.00;47.66;99736.00;5067862;28;20017;-75
2022/07/30 01:37:16;;;;;;;5.03;1.73;;;;;;;22.09;47.46;99737.53;5067257;28;20029;-74
2022/07/30 01:39:43;;;;;;;3.60;1.40;;;;;;;22.12;47.43;99739.03;5067591;28;20063;-74
2022/07/30 01:42:12;;;;;;;2.67;1.35;;;;;;;22.09;47.29;99742.09;5067824;28;20075;-75
2022/07/30 01:44:41;;;;;;;1.98;1.30;;;;;;;22.01;47.75;99743.06;5066378;28;20048;-73
2022/07/30 01:47:08;;;;;;;3.88;1.48;;;;;;;21.95;47.60;99741.09;5066918;28;20103;-74
2022/07/30 01:49:36;;;;;;;2.50;1.00;;;;;;;21.90;47.76;99736.28;5067485;28;20043;-72
2022/07/30 01:52:04;;;;;;;2.40;1.00;;;;;;;21.89;47.84;99737.31;5067146;28;20021;-74
2022/07/30 01:54:32;;;;;;;3.15;1.35;;;;;;;21.88;47.85;99745.59;5067485;28;20021;-72
2022/07/30 01:56:59;;;;;;;3.15;1.30;;;;;;;21.84;47.91;99745.13;5049670;28;20238;-75
2022/07/30 01:59:28;;;;;;;1.83;1.15;;;;;;;21.77;48.06;99745.03;5067461;28;20016;-73
2022/07/30 02:01:54;;;;;;;9.18;1.70;;;;;;;21.69;48.16;99742.47;5067708;28;20272;-75
2022/07/30 02:04:20;;;;;;;3.38;1.55;;;;;;;21.63;48.12;99746.75;5065944;28;20028;-76
2022/07/30 02:06:57;;;;;;;3.30;1.40;;;;;;;21.61;48.48;99746.13;5067200;28;20024;-74
2022/07/30 02:09:34;;;;;;;3.97;1.40;;;;;;;21.66;47.92;99745.53;5067027;28;20044;-77
2022/07/30 02:14:59;;;;;;;3.22;0.98;;;;;;;21.67;48.37;99741.00;5067428;28;20023;-74
2022/07/30 02:17:29;;;;;;;4.18;1.17;;;;;;;21.64;48.47;99736.81;5066877;28;20043;-77
2022/07/30 02:19:56;;;;;;;4.05;1.25;;;;;;;21.63;48.45;99741.38;5065063;28;20222;-76
2022/07/30 02:22:24;;;;;;;2.25;1.10;;;;;;;21.65;48.62;99738.47;5066574;28;20025;-78
2022/07/30 02:24:53;;;;;;;5.15;1.10;;;;;;;21.63;48.69;99744.06;5066932;28;20059;-76
2022/07/30 02:27:27;;;;;;;5.97;1.60;;;;;;;21.63;48.83;99740.53;5067055;28;20040;-78
2022/07/30 02:29:56;;;;;;;4.40;1.35;;;;;;;21.62;48.79;99745.09;5066672;28;20252;-77
2022/07/30 02:32:28;;;;;;;5.30;1.30;;;;;;;21.62;48.72;99750.47;5067234;28;20056;-78
2022/07/30 02:35:00;;;;;;;3.50;1.30;;;;;;;21.58;48.44;99757.22;5066912;28;20131;-76
2022/07/30 02:37:28;;;;;;;2.50;1.48;;;;;;;21.54;48.74;99747.88;5066754;28;20386;-76
2022/07/30 02:39:55;;;;;;;3.33;1.17;;;;;;;21.60;48.76;99757.91;5064359;28;20029;-78
2022/07/30 02:42:23;;;;;;;1.95;0.90;;;;;;;21.64;48.32;99751.13;5066764;28;20055;-77
2022/07/30 02:44:51;;;;;;;4.57;1.30;;;;;;;21.63;48.46;99757.53;5063548;28;20071;-75
2022/07/30 02:47:20;;;;;;;6.43;1.88;;;;;;;21.63;47.97;99757.53;5065764;28;20029;-77
2022/07/30 02:49:48;;;;;;;2.95;1.20;;;;;;;21.66;47.96;99760.88;5066866;28;20033;-75
2022/07/30 02:52:16;;;;;;;3.75;1.35;;;;;;;21.76;47.79;99764.09;5066269;28;20032;-74
2022/07/30 02:54:43;;;;;;;2.58;1.63;;;;;;;21.76;47.60;99758.72;5066638;28;20047;-74
2022/07/30 02:57:10;;;;;;;4.53;1.15;;;;;;;21.67;47.51;99766.06;5049740;28;20230;-75
2022/07/30 02:59:38;;;;;;;7.18;1.38;;;;;;;21.63;47.75;99767.44;5066706;28;20051;-76
2022/07/30 03:02:07;;;;;;;3.15;1.10;;;;;;;21.62;47.97;99769.31;5064066;28;20292;-75
2022/07/30 03:04:33;;;;;;;2.67;1.00;;;;;;;21.70;47.68;99773.78;5066394;28;20044;-75
2022/07/30 03:07:00;;;;;;;1.73;1.10;;;;;;;21.74;47.80;99772.38;5066267;28;20229;-76
2022/07/30 03:09:27;;;;;;;2.90;1.00;;;;;;;21.83;47.68;99772.25;5066542;28;20092;-75
2022/07/30 03:11:54;;;;;;;3.22;1.38;;;;;;;21.85;47.38;99768.34;5066959;28;20150;-77
2022/07/30 03:14:20;;;;;;;2.50;1.17;;;;;;;21.86;47.05;99771.88;5066792;28;20047;-74
2022/07/30 03:16:50;;;;;;;2.60;1.10;;;;;;;21.87;47.06;99768.16;5066354;28;20029;-76
2022/07/30 03:19:19;;;;;;;6.28;1.13;;;;;;;21.87;47.05;99765.47;5065326;28;20021;-77
2022/07/30 03:21:45;;;;;;;5.85;1.27;;;;;;;21.88;46.94;99770.66;5067623;28;20028;-74
2022/07/30 03:24:13;;;;;;;3.88;1.40;;;;;;;21.91;46.44;99766.78;5070115;28;20260;-74
2022/07/30 03:26:40;;;;;;;3.70;1.20;;;;;;;22.09;46.49;99780.63;5070215;28;20230;-77
2022/07/30 03:29:08;;;;;;;3.03;1.00;;;;;;;22.33;46.28;99781.31;5052552;28;20281;-77
2022/07/30 03:31:35;;;;;;;2.17;1.17;;;;;;;22.50;45.48;99773.00;5069557;28;20020;-75
2022/07/30 03:34:01;;;;;;;3.65;1.00;;;;;;;22.49;45.33;99779.44;5067632;28;20017;-76
2022/07/30 03:36:28;;;;;;;3.08;1.25;;;;;;;22.43;45.53;99777.50;5069694;28;20017;-77
2022/07/30 03:38:56;;;;;;;2.58;1.00;;;;;;;22.43;45.30;99782.88;5069726;28;20045;-77
2022/07/30 03:41:22;;;;;;;1.40;0.90;;;;;;;22.45;45.16;99786.22;5066625;28;20087;-74
2022/07/30 03:43:48;;;;;;;3.22;1.13;;;;;;;22.52;45.17;99779.88;5050403;28;20013;-75
2022/07/30 03:46:15;;;;;;;2.83;1.42;;;;;;;22.63;44.92;99775.81;5069980;28;20023;-75
2022/07/30 03:48:42;;;;;;;1.48;1.00;;;;;;;22.81;44.73;99793.38;5068203;28;20141;-76
2022/07/30 03:51:09;;;;;;;1.60;0.77;;;;;;;22.79;44.38;99782.78;5070056;28;20230;-71
2022/07/30 03:53:35;;;;;;;6.10;1.10;;;;;;;22.78;44.56;99781.13;5069610;28;20025;-73
2022/07/30 03:56:01;;;;;;;4.80;1.05;;;;;;;22.81;44.08;99793.38;5069424;28;20100;-75
2022/07/30 03:58:27;;;;;;;4.93;0.90;;;;;;;22.75;44.03;99786.91;5069356;28;20024;-74
2022/07/30 04:00:53;;;;;;;1.73;0.70;;;;;;;22.78;44.00;99786.50;5069454;28;20033;-74
2022/07/30 04:03:28;;;;;;;2.65;1.00;;;;;;;22.75;43.81;99786.06;5069222;28;20060;-73
2022/07/30 04:05:54;;;;;;;1.92;0.80;;;;;;;22.73;43.88;99793.53;5069342;28;20029;-73
2022/07/30 04:08:20;;;;;;;3.80;1.27;;;;;;;22.67;43.81;99779.78;5069378;28;20059;-74
2022/07/30 04:10:47;;;;;;;2.03;0.93;;;;;;;22.69;43.76;99780.41;5067734;28;20028;-72
2022/07/30 04:13:12;;;;;;;4.78;1.10;;;;;;;22.73;43.67;99788.94;5068709;28;20420;-72
2022/07/30 04:16:04;;;;;;;2.70;0.85;;;;;;;22.73;43.44;99791.66;5068963;28;20043;-75
2022/07/30 04:18:35;;;;;;;2.30;0.70;;;;;;;22.65;43.36;99784.53;5034189;28;20041;-74
2022/07/30 04:21:04;;;;;;;1.90;0.90;;;;;;;22.69;43.42;99782.31;5069063;28;20028;-76
2022/07/30 04:23:31;;;;;;;4.50;1.00;;;;;;;22.73;43.67;99778.16;5069548;28;20035;-75
2022/07/30 04:25:58;;;;;;;2.28;0.90;;;;;;;22.82;43.27;99782.41;5068238;28;20188;-76
2022/07/30 04:28:25;;;;;;;1.10;0.80;;;;;;;22.94;42.86;99781.88;5069419;28;20063;-75
2022/07/30 04:30:51;;;;;;;2.65;0.90;;;;;;;23.05;42.39;99786.72;5068979;28;20097;-72
2022/07/30 04:33:17;;;;;;;4.32;0.65;;;;;;;23.14;42.28;99779.31;5050575;28;20122;-73
2022/07/30 04:35:42;;;;;;;3.67;0.95;;;;;;;23.27;41.96;99792.09;5069406;28;20096;-75
2022/07/30 04:38:09;;;;;;;2.28;0.80;;;;;;;23.45;40.98;99788.88;5069291;28;20025;-73
2022/07/30 04:40:35;;;;;;;4.65;0.85;;;;;;;23.77;40.41;99795.47;5069111;28;20031;-73
2022/07/30 04:43:00;;;;;;;1.90;0.90;;;;;;;24.06;39.71;99790.00;5069112;28;20021;-73
2022/07/30 04:45:26;;;;;;;1.88;0.85;;;;;;;24.25;39.47;99799.19;5067523;28;20083;-75
2022/07/30 04:47:54;;;;;;;2.20;0.82;;;;;;;24.52;38.29;99799.22;5068985;28;20143;-72
2022/07/30 04:50:26;;;;;;;1.52;0.85;;;;;;;24.78;37.97;99797.59;5068991;28;20017;-75
2022/07/30 04:52:54;;;;;;;1.65;0.85;;;;;;;24.99;37.33;99793.88;5068798;28;20032;-74
2022/07/30 04:55:22;;;;;;;5.05;1.63;;;;;;;25.19;36.95;99799.25;5069000;28;20091;-74
2022/07/30 04:57:50;;;;;;;5.13;0.90;;;;;;;25.31;36.47;99795.91;5051971;28;20017;-72
2022/07/30 05:00:16;;;;;;;2.00;0.98;;;;;;;25.43;36.19;99802.34;5067130;28;20175;-75
2022/07/30 05:02:44;;;;;;;2.85;1.23;;;;;;;25.62;36.14;99797.09;5068778;28;20257;-76
2022/07/30 05:05:12;;;;;;;3.38;0.98;;;;;;;25.78;35.61;99799.34;5068761;28;20088;-74
2022/07/30 05:07:38;;;;;;;2.33;0.95;;;;;;;25.92;35.52;99804.69;5068710;28;20021;-74
2022/07/30 05:10:05;;;;;;;2.42;0.80;;;;;;;26.01;35.19;99800.69;5068704;28;20031;-75
2022/07/30 05:12:37;;;;;;;4.82;1.08;;;;;;;26.10;34.88;99803.97;5068438;28;20067;-74
2022/07/30 05:15:08;;;;;;;3.53;1.10;;;;;;;26.15;34.74;99796.88;5050947;28;20231;-76
2022/07/30 05:17:34;;;;;;;4.97;0.82;;;;;;;26.27;34.24;99802.44;5048517;28;20037;-72
2022/07/30 05:20:00;;;;;;;2.03;0.82;;;;;;;26.38;34.01;99811.78;5048552;28;20037;-73
2022/07/30 05:22:28;;;;;;;1.42;0.63;;;;;;;26.47;34.18;99799.59;5065823;28;20084;-74
2022/07/30 05:24:57;;;;;;;2.95;0.90;;;;;;;26.61;34.61;99800.34;5068332;28;20037;-75
2022/07/30 05:27:23;;;;;;;1.67;1.10;;;;;;;26.79;34.09;99802.31;5068186;28;20028;-73
2022/07/30 05:29:48;;;;;;;1.30;0.70;;;;;;;26.90;33.80;99810.78;5068335;28;20280;-74
2022/07/30 05:32:14;;;;;;;2.03;0.93;;;;;;;26.93;34.10;99813.88;5067792;28;20138;-72
2022/07/30 05:34:39;;;;;;;2.63;1.00;;;;;;;27.03;33.54;99805.25;5068200;28;20024;-73
2022/07/30 05:37:05;;;;;;;3.92;0.98;;;;;;;27.06;33.73;99801.22;5065394;28;20039;-74
2022/07/30 05:39:30;;;;;;;1.05;0.82;;;;;;;27.13;33.12;99806.63;5067648;28;20024;-72
2022/07/30 05:41:56;;;;;;;2.55;1.13;;;;;;;27.16;33.44;99806.16;5067818;28;20078;-72
2022/07/30 05:44:21;;;;;;;3.15;1.25;;;;;;;27.23;33.90;99806.94;5050240;28;20032;-72
2022/07/30 05:46:48;;;;;;;2.90;0.70;;;;;;;27.29;33.65;99806.03;5067761;28;20025;-72
2022/07/30 05:49:14;;;;;;;5.88;1.20;;;;;;;27.28;33.15;99812.50;5068021;28;20032;-73
2022/07/30 05:51:40;;;;;;;1.50;1.17;;;;;;;27.23;32.97;99812.38;5068257;28;20025;-74
2022/07/30 05:54:06;;;;;;;3.15;1.00;;;;;;;27.16;33.52;99814.31;5065664;28;20095;-77
2022/07/30 05:56:32;;;;;;;3.03;0.90;;;;;;;27.16;33.33;99817.88;5068452;28;20040;-72
2022/07/30 05:58:58;;;;;;;1.13;0.88;;;;;;;27.13;33.73;99817.50;5067748;28;20032;-73
2022/07/30 06:01:23;;;;;;;1.50;0.80;;;;;;;27.07;33.55;99819.19;5067757;28;20218;-74
2022/07/30 06:03:49;;;;;;;2.50;0.82;;;;;;;27.03;33.43;99802.53;5067282;28;20027;-75
2022/07/30 06:06:14;;;;;;;5.20;0.80;;;;;;;26.96;33.52;99815.34;5067718;28;20024;-75
2022/07/30 06:08:40;;;;;;;2.45;1.10;;;;;;;26.90;33.57;99813.50;5065555;28;20230;-72
2022/07/30 06:11:07;;;;;;;3.83;0.88;;;;;;;26.85;33.46;99810.63;5067987;28;20020;-71
2022/07/30 06:13:33;;;;;;;4.93;0.90;;;;;;;26.75;33.61;99817.34;5062153;28;20021;-73
2022/07/30 06:15:59;;;;;;;1.58;0.57;;;;;;;26.60;33.69;99808.69;5030293;28;20111;-74
2022/07/30 06:18:24;;;;;;;1.63;0.73;;;;;;;26.29;34.20;99810.34;5047354;28;20081;-72
2022/07/30 06:20:52;;;;;;;3.05;0.75;;;;;;;26.13;34.72;99803.56;5047428;28;20028;-73
2022/07/30 06:23:19;;;;;;;2.92;0.70;;;;;;;25.98;35.33;99801.09;5049078;28;20088;-70
2022/07/30 06:25:45;;;;;;;1.92;0.63;;;;;;;25.88;34.55;99807.00;5067430;28;20031;-72
2022/07/30 06:28:11;;;;;;;0.90;0.52;;;;;;;25.67;35.30;99808.09;5067056;28;20023;-72
2022/07/30 06:30:36;;;;;;;1.17;0.77;;;;;;;25.54;35.41;99803.59;5067459;28;20024;-74
2022/07/30 06:33:02;;;;;;;3.05;0.70;;;;;;;25.53;35.92;99805.44;5067253;28;20095;-75
2022/07/30 06:35:27;;;;;;;0.98;0.60;;;;;;;25.53;36.37;99804.63;5067336;28;20040;-71
2022/07/30 06:37:53;;;;;;;2.63;0.70;;;;;;;25.48;36.29;99807.97;5067099;28;20161;-74
2022/07/30 06:40:18;;;;;;;7.25;1.30;;;;;;;25.46;35.64;99812.78;5065628;28;20050;-75
2022/07/30 06:42:44;;;;;;;2.28;0.60;;;;;;;25.42;35.92;99816.94;5067240;28;20032;-72
2022/07/30 06:45:10;;;;;;;4.03;0.60;;;;;;;25.37;36.36;99814.84;5067305;28;20055;-74
2022/07/30 06:47:35;;;;;;;2.58;0.50;;;;;;;25.35;36.23;99806.09;5067037;28;20169;-75
2022/07/30 06:50:01;;;;;;;1.80;0.60;;;;;;;25.38;35.86;99810.25;5067272;28;20036;-72
2022/07/30 06:52:27;;;;;;;0.85;0.55;;;;;;;25.36;36.26;99812.34;5067055;28;20287;-77
2022/07/30 06:54:52;;;;;;;2.53;0.60;;;;;;;25.38;36.22;99812.94;5049212;28;20025;-77
2022/07/30 06:57:18;;;;;;;5.88;2.08;;;;;;;25.28;35.52;99814.22;5069699;28;20029;-75
2022/07/30 06:59:43;;;;;;;4.40;0.88;;;;;;;25.18;35.96;99819.25;5053645;28;20222;-72
2022/07/30 07:02:10;;;;;;;1.83;0.80;;;;;;;25.08;36.48;99818.81;5071081;28;20230;-74
2022/07/30 07:04:35;;;;;;;3.67;0.63;;;;;;;24.97;36.16;99812.19;5070953;28;20024;-73
2022/07/30 07:07:01;;;;;;;5.82;0.90;;;;;;;24.87;36.83;99820.72;5071027;28;20021;-76
2022/07/30 07:09:27;;;;;;;6.05;1.02;;;;;;;24.84;36.59;99807.59;5069694;28;20032;-73
2022/07/30 07:11:52;;;;;;;1.45;0.50;;;;;;;24.80;36.49;99817.16;5070481;28;20175;-73
2022/07/30 07:14:18;;;;;;;2.72;0.88;;;;;;;24.73;36.09;99811.75;5070588;28;20017;-75
2022/07/30 07:16:44;;;;;;;2.70;0.70;;;;;;;24.73;36.65;99819.88;5070761;28;20041;-72
2022/07/30 07:19:09;;;;;;;2.38;0.80;;;;;;;24.75;36.79;99816.97;5070729;28;20149;-73
2022/07/30 07:21:35;;;;;;;5.82;0.70;;;;;;;24.80;36.71;99819.88;5070399;28;20147;-73
2022/07/30 07:24:01;;;;;;;1.73;0.75;;;;;;;24.83;36.88;99816.75;5070099;28;20021;-75
2022/07/30 07:26:28;;;;;;;1.50;0.80;;;;;;;24.87;36.93;99828.84;5052081;28;20012;-76
2022/07/30 07:28:54;;;;;;;2.30;0.80;;;;;;;24.89;36.48;99834.88;5070489;28;20020;-76
2022/07/30 07:31:19;;;;;;;1.75;0.60;;;;;;;24.88;36.33;99821.53;5070493;28;20225;-73
2022/07/30 07:33:46;;;;;;;1.20;0.50;;;;;;;24.82;36.82;99826.78;5070200;28;20020;-75
2022/07/30 07:36:12;;;;;;;4.18;0.98;;;;;;;24.85;36.76;99813.88;5052977;28;20153;-73
2022/07/30 07:38:38;;;;;;;0.98;0.88;;;;;;;24.86;36.77;99818.22;5070366;28;20037;-72
2022/07/30 07:41:04;;;;;;;3.22;0.77;;;;;;;24.89;37.07;99810.53;5068650;28;20040;-74
2022/07/30 07:43:29;;;;;;;1.77;0.70;;;;;;;24.88;37.20;99811.56;5069014;28;20023;-75
2022/07/30 07:45:55;;;;;;;3.38;0.60;;;;;;;24.83;36.91;99811.34;5070175;28;20052;-76
2022/07/30 07:48:21;;;;;;;3.97;0.70;;;;;;;24.76;36.87;99815.94;5069861;28;20052;-73
2022/07/30 07:50:46;;;;;;;2.38;0.65;;;;;;;24.72;37.03;99817.38;5070100;28;20040;-74
2022/07/30 07:53:12;;;;;;;2.17;0.63;;;;;;;24.68;36.90;99812.34;5070142;28;20028;-74
2022/07/30 07:55:38;;;;;;;2.60;0.60;;;;;;;24.67;36.98;99802.56;5070190;28;20028;-74
2022/07/30 07:58:03;;;;;;;1.45;0.70;;;;;;;24.65;37.14;99804.66;5068498;28;20261;-75
2022/07/30 08:00:29;;;;;;;2.15;0.60;;;;;;;24.64;37.18;99789.44;5070048;28;20025;-75
2022/07/30 08:02:55;;;;;;;1.02;0.50;;;;;;;24.71;37.10;99791.38;5069473;28;20021;-71
2022/07/30 08:05:20;;;;;;;1.45;0.60;;;;;;;24.76;36.72;99788.88;5070003;28;20033;-73
2022/07/30 08:07:46;;;;;;;5.40;1.00;;;;;;;24.78;36.50;99793.03;5069485;28;20154;-75
2022/07/30 08:10:13;;;;;;;6.03;0.80;;;;;;;24.80;36.72;99790.13;5069739;28;20044;-76
2022/07/30 08:12:39;;;;;;;2.70;0.70;;;;;;;24.84;37.01;99783.25;5069086;28;20083;-71
2022/07/30 08:15:05;;;;;;;3.53;0.80;;;;;;;24.91;37.04;99781.38;5059981;28;20037;-71
2022/07/30 08:17:31;;;;;;;1.58;0.60;;;;;;;24.97;36.30;99788.66;5067095;28;20058;-73
2022/07/30 08:19:59;;;;;;;4.70;0.50;;;;;;;24.97;36.23;99785.94;5069626;28;20049;-72
2022/07/30 08:22:25;;;;;;;1.55;0.90;;;;;;;24.93;36.29;99778.47;5068901;28;20033;-74
2022/07/30 08:24:50;;;;;;;3.67;0.90;;;;;;;24.91;36.31;99775.97;5069605;28;20036;-73
2022/07/30 08:27:16;;;;;;;3.67;0.70;;;;;;;24.93;36.43;99771.16;5069086;28;20039;-74
2022/07/30 08:29:41;;;;;;;1.15;0.45;;;;;;;24.95;35.86;99771.78;5069511;28;20043;-74
2022/07/30 08:32:07;;;;;;;1.25;0.63;;;;;;;25.02;35.57;99782.59;5067672;28;20032;-73
2022/07/30 08:34:32;;;;;;;1.08;0.43;;;;;;;25.01;35.23;99772.81;5068477;28;20028;-73
2022/07/30 08:36:58;;;;;;;3.13;0.75;;;;;;;24.97;35.68;99775.13;5069318;28;20020;-74
2022/07/30 08:39:23;;;;;;;4.03;0.57;;;;;;;24.97;35.82;99775.13;5068826;28;20025;-74
2022/07/30 08:41:49;;;;;;;3.70;0.90;;;;;;;25.01;35.88;99766.59;5069122;28;20060;-73
2022/07/30 08:44:17;;;;;;;3.70;0.75;;;;;;;25.05;35.77;99771.38;5069313;28;20017;-72
2022/07/30 08:46:45;;;;;;;0.75;0.50;;;;;;;25.06;35.52;99773.03;5069327;28;20293;-73
2022/07/30 08:49:14;;;;;;;5.10;0.85;;;;;;;25.03;35.72;99759.91;5058911;28;20021;-73
2022/07/30 08:51:40;;;;;;;1.85;0.80;;;;;;;24.97;36.10;99772.41;5069050;28;20025;-73
2022/07/30 08:54:05;;;;;;;1.42;0.70;;;;;;;24.92;35.61;99765.97;5067944;28;20107;-73
2022/07/30 08:56:32;;;;;;;1.55;0.98;;;;;;;24.88;36.00;99759.31;5068559;28;20101;-73
2022/07/30 08:59:01;;;;;;;5.18;0.80;;;;;;;24.86;36.12;99762.22;5067805;28;20024;-73
2022/07/30 09:01:26;;;;;;;3.70;1.00;;;;;;;24.85;35.98;99757.03;5068915;28;20110;-73
2022/07/30 09:03:52;;;;;;;4.47;0.90;;;;;;;24.86;36.43;99772.19;5066970;28;20045;-73
2022/07/30 09:06:18;;;;;;;5.05;1.20;;;;;;;24.91;36.24;99761.59;5068786;28;20089;-72
2022/07/30 09:08:43;;;;;;;2.33;0.50;;;;;;;24.90;36.36;99760.78;5068220;28;20025;-71
2022/07/30 09:11:09;;;;;;;1.52;0.75;;;;;;;24.93;35.93;99756.81;5068322;28;20074;-71
2022/07/30 09:13:36;;;;;;;1.23;0.50;;;;;;;24.94;35.88;99762.00;5068339;28;20036;-70
2022/07/30 09:16:05;;;;;;;3.60;0.80;;;;;;;24.94;35.73;99762.00;5068551;28;20039;-71
2022/07/30 09:18:32;;;;;;;1.73;0.68;;;;;;;24.97;35.49;99753.47;5067163;28;20067;-72
2022/07/30 09:21:00;;;;;;;4.22;1.00;;;;;;;24.95;35.09;99758.25;5066667;28;20256;-72
2022/07/30 09:23:25;;;;;;;1.50;0.70;;;;;;;24.88;35.65;99757.44;5068408;28;20279;-71
2022/07/30 09:25:51;;;;;;;1.33;0.60;;;;;;;24.86;35.32;99756.81;5068472;28;20044;-71
2022/07/30 09:28:27;;;;;;;3.15;0.70;;;;;;;24.85;35.98;99760.56;5068358;28;20234;-71
2022/07/30 09:30:54;;;;;;;1.85;0.98;;;;;;;24.87;35.57;99763.91;5068318;28;20105;-72
2022/07/30 09:33:36;;;;;;;2.28;0.98;;;;;;;24.83;35.10;99760.78;5068241;28;20225;-72
2022/07/30 09:36:06;;;;;;;1.33;0.80;;;;;;;24.76;35.36;99768.06;5066836;28;20303;-72
2022/07/30 09:38:51;;;;;;;2.53;0.80;;;;;;;24.76;35.23;99764.53;5068160;28;20035;-72
2022/07/30 09:41:36;;;;;;;3.13;0.60;;;;;;;24.75;35.36;99760.16;5060808;28;20207;-72
2022/07/30 09:44:04;;;;;;;10.18;1.00;;;;;;;24.77;35.26;99760.78;5048043;28;20056;-73
2022/07/30 09:46:46;;;;;;;1.80;0.70;;;;;;;24.79;35.51;99764.94;5048143;28;20128;-74
2022/07/30 09:49:23;;;;;;;4.38;0.60;;;;;;;24.79;35.21;99762.22;5047973;28;20100;-74
2022/07/30 09:51:50;;;;;;;3.88;0.50;;;;;;;24.79;34.16;99756.81;5049576;28;20030;-73
2022/07/30 09:54:16;;;;;;;3.30;0.60;;;;;;;24.74;34.04;99756.59;5066891;28;20021;-72
2022/07/30 09:56:45;;;;;;;3.90;0.55;;;;;;;24.75;34.27;99758.28;5067118;28;20100;-73
2022/07/30 09:59:28;;;;;;;0.70;0.60;;;;;;;24.79;34.02;99762.22;5066974;28;20051;-72
2022/07/30 10:01:55;;;;;;;2.78;0.80;;;;;;;24.79;34.01;99755.97;5067776;28;20044;-73
2022/07/30 10:04:25;;;;;;;10.77;1.10;;;;;;;24.80;33.92;99754.94;5067602;28;20087;-72
2022/07/30 10:06:50;;;;;;;3.03;0.50;;;;;;;24.81;34.24;99754.75;5065672;28;20044;-73
2022/07/30 10:09:27;;;;;;;3.92;0.85;;;;;;;24.86;33.40;99751.41;5067121;28;20142;-73
2022/07/30 10:11:55;;;;;;;2.10;0.80;;;;;;;24.84;33.90;99753.47;5067641;28;20048;-73
2022/07/30 10:14:23;;;;;;;2.35;0.52;;;;;;;24.85;33.41;99752.44;5067369;28;20036;-72
2022/07/30 10:16:50;;;;;;;1.30;0.70;;;;;;;24.83;33.71;99755.38;5067020;28;20029;-72
2022/07/30 10:19:17;;;;;;;1.52;0.90;;;;;;;24.83;33.81;99757.22;5066939;28;20272;-72
2022/07/30 10:21:43;;;;;;;1.70;0.93;;;;;;;24.82;34.18;99748.28;5064726;28;20289;-73
2022/07/30 10:24:10;;;;;;;2.83;0.70;;;;;;;24.77;33.78;99749.97;5066168;28;20029;-70
2022/07/30 10:26:36;;;;;;;2.88;0.70;;;;;;;24.75;33.64;99758.28;5050011;28;20211;-72
2022/07/30 10:29:03;;;;;;;1.58;0.70;;;;;;;24.74;33.92;99759.31;5067568;28;20039;-72
2022/07/30 10:31:29;;;;;;;1.75;0.63;;;;;;;24.75;33.67;99757.44;5067355;28;20238;-72
2022/07/30 10:33:55;;;;;;;1.75;0.77;;;;;;;24.79;33.63;99747.84;5066456;28;20048;-71
2022/07/30 10:36:23;;;;;;;0.80;0.45;;;;;;;24.79;33.64;99750.56;5065113;28;20127;-71
2022/07/30 10:38:49;;;;;;;1.35;0.70;;;;;;;24.79;33.75;99747.84;5066779;28;20084;-72
2022/07/30 10:41:51;;;;;;;3.30;0.70;;;;;;;24.81;33.45;99745.78;5067195;28;20236;-72
2022/07/30 10:44:27;;;;;;;1.67;0.65;;;;;;;24.81;33.81;99753.91;5066882;28;20071;-72
2022/07/30 10:47:12;;;;;;;3.90;0.65;;;;;;;24.84;33.25;99748.06;5066586;28;20238;-72
2022/07/30 10:49:38;;;;;;;1.23;0.68;;;;;;;24.86;33.19;99755.97;5067446;28;20043;-74
2022/07/30 10:52:04;;;;;;;3.17;0.55;;;;;;;24.87;33.02;99758.47;5063475;28;20035;-72
2022/07/30 10:54:32;;;;;;;1.45;0.85;;;;;;;24.87;32.90;99746.81;5047162;28;20171;-74
2022/07/30 10:57:16;;;;;;;2.08;0.68;;;;;;;24.88;32.71;99749.31;5054852;28;20060;-70
2022/07/30 10:59:59;;;;;;;2.70;0.60;;;;;;;24.87;33.39;99754.94;5059171;28;20247;-72
2022/07/30 11:02:27;;;;;;;1.27;0.93;;;;;;;24.90;33.85;99749.94;5066872;28;20020;-70
2022/07/30 11:05:18;;;;;;;2.72;0.90;;;;;;;24.93;32.94;99743.28;5066357;28;20052;-69
2022/07/30 11:07:47;;;;;;;3.17;0.77;;;;;;;24.90;32.88;99747.25;5049657;28;20018;-70
2022/07/30 11:10:37;;;;;;;3.75;0.80;;;;;;;24.86;32.75;99734.31;5066741;28;20029;-71
2022/07/30 11:13:04;;;;;;;2.25;0.90;;;;;;;24.77;32.36;99739.13;5065855;28;20297;-68
2022/07/30 11:15:53;;;;;;;3.67;0.80;;;;;;;24.79;32.60;99732.47;5065213;28;20149;-72
2022/07/30 11:18:18;;;;;;;1.52;0.60;;;;;;;24.82;32.32;99731.22;5066568;28;20133;-71
2022/07/30 11:21:14;;;;;;;5.45;0.70;;;;;;;24.91;32.73;99739.94;5064258;28;20025;-70
2022/07/30 11:23:41;;;;;;;6.53;0.77;;;;;;;24.92;31.96;99734.34;5064693;28;20020;-71
2022/07/30 11:26:08;;;;;;;2.15;0.77;;;;;;;24.97;32.50;99741.81;5064819;28;20084;-72
2022/07/30 11:28:41;;;;;;;10.80;1.08;;;;;;;24.96;32.87;99735.56;5059660;28;20026;-69
2022/07/30 11:31:29;;;;;;;2.97;0.80;;;;;;;24.98;32.73;99736.19;5063454;28;20020;-74
2022/07/30 11:34:31;;;;;;;6.28;0.88;;;;;;;24.99;32.46;99723.50;5065317;28;20017;-73
2022/07/30 11:37:03;;;;;;;3.42;0.70;;;;;;;24.95;31.53;99735.78;5003777;28;20030;-76
2022/07/30 11:39:56;;;;;;;3.13;0.60;;;;;;;24.94;31.70;99732.22;5048347;28;20041;-74
2022/07/30 11:42:36;;;;;;;4.65;1.02;;;;;;;24.96;32.45;99726.63;5061089;28;20245;-73
2022/07/30 11:45:17;;;;;;;2.60;0.50;;;;;;;25.01;32.27;99731.41;5067914;28;20056;-73